Jonesville, New York
Current Conditions -  °F | °C
As of 12:51 PM on Saturday 25 Oct 2014 (Local Time) from KALB Reporting Station
Broken Clouds Broken Clouds  
Wind Chill: 58°   Ceiling: 5500
Heat Index: 58°   Visibility: 10mi
Dew Point: 45°   Wind: 3mph
Humidity: 62%   Direction: 110°ESE
Pressure: 29.72"   Gusts: NA
Location:  42.8536°N, 73.7851°W
Report Text: KALB 251651Z 11003KT 10SM SCT036 BKN055 BKN200 14/07 A2972 RMK AO2 SLP065 T01440072 $
Loading
Personal Weather Stations






























Interactive Weather Map
Tropical Storm Tracking
New forecast layout! Learn more

10-Day Weather Forecast

Advertisements
Track Severe Weather on mobile